Lady Of Guadalupe — WDG2401 — position and weather

sailwx.info

Track history (hours):
 
Tides and Currents Weather Stations Pressure Air Temp Water Temp Dewpoint Dewpoint Depression Visibility Wind Speed Wind Dir Waves Ship Positions

Lady Of Guadalupe

Owner: Marquette Transportation Company Gulf-Inland, LLC, Jefferson, LA. More information available from US FCC via Universal Licensing System and Coast Guard Vessel Documentation Center.

Last reported at 2018-Jun-23 14:06 UTC. Time now 2018-Jun-23 15:33 UTC.
Position N 29°56' W 093°06'.

Length 205 m; draft 3 m.

Type: Towing. MMSI: 367515280.

Date/timePositionNaut miles runAvg speedWind from/ knotsBaromVisibWave heightAir tempDewpointWater temp
2018-Jun-23 14:06N 29°56' W 093°06'0 4.0
2018-Jun-23 13:59N 29°56' W 093°07'2 4.2
2018-Jun-23 13:30N 29°56' W 093°09'2 4.2
2018-Jun-23 13:00N 29°58' W 093°11'2 3.4
2018-Jun-23 12:30N 29°59' W 093°12'2 4.0
2018-Jun-23 12:00N 30°00' W 093°14'2 3.4
2018-Jun-23 11:30N 30°02' W 093°15'1 2.7
2018-Jun-23 11:00N 30°03' W 093°16'1 2.7
2018-Jun-23 10:30N 30°04' W 093°16'1 2.9
2018-Jun-23 10:00N 30°05' W 093°17'0 0.8
2018-Jun-23 09:30N 30°05' W 093°18'1 1.6
2018-Jun-23 09:00N 30°06' W 093°18'0 0.8
2018-Jun-23 08:30N 30°06' W 093°19'0 0.0
2018-Jun-23 08:00N 30°06' W 093°19'0 0.0
2018-Jun-23 07:30N 30°06' W 093°19'0 0.0
2018-Jun-23 07:00N 30°06' W 093°19'0 0.0
2018-Jun-23 06:30N 30°06' W 093°19'0 0.0
2018-Jun-23 06:00N 30°06' W 093°19'0 0.1
2018-Jun-23 05:30N 30°06' W 093°19'0 0.0
2018-Jun-23 05:00N 30°06' W 093°19'0 0.0
2018-Jun-23 04:30N 30°06' W 093°19'0 0.0
2018-Jun-23 04:00N 30°06' W 093°19'0 0.0
2018-Jun-23 03:30N 30°06' W 093°19'0 0.0
2018-Jun-23 03:00N 30°06' W 093°19'0 0.0
2018-Jun-23 02:30N 30°06' W 093°19'0 0.0
2018-Jun-23 02:00N 30°06' W 093°19'0 0.0
2018-Jun-23 01:30N 30°06' W 093°19'0 0.0
2018-Jun-23 00:59N 30°06' W 093°19'0 0.0
2018-Jun-23 00:30N 30°06' W 093°19'0 0.0
2018-Jun-23 00:00N 30°06' W 093°19'0 0.0
2018-Jun-22 23:30N 30°06' W 093°19'0 0.0
2018-Jun-22 23:00N 30°06' W 093°19'0 0.0
2018-Jun-22 22:30N 30°06' W 093°19'0 0.1
2018-Jun-22 22:00N 30°06' W 093°19'0 0.0
2018-Jun-22 21:30N 30°06' W 093°19'0 0.0
2018-Jun-22 21:00N 30°06' W 093°19'0 0.0
2018-Jun-22 20:30N 30°06' W 093°19'0 0.0
2018-Jun-22 20:00N 30°06' W 093°19'0 0.0
2018-Jun-22 19:30N 30°06' W 093°19'0 0.0
2018-Jun-22 19:00N 30°06' W 093°19'0 0.0
2018-Jun-22 18:30N 30°06' W 093°19'0 0.0
2018-Jun-22 18:00N 30°06' W 093°19'0 0.0
2018-Jun-22 17:30N 30°06' W 093°19'0 0.0
2018-Jun-22 17:00N 30°06' W 093°19'0 0.0
2018-Jun-22 16:30N 30°06' W 093°19'0 0.0
2018-Jun-22 16:00N 30°06' W 093°19'0 0.0
2018-Jun-22 15:30N 30°06' W 093°19'0 0.0
2018-Jun-22 15:00N 30°06' W 093°19'0 0.0
2018-Jun-22 14:30N 30°06' W 093°19'0 0.0
2018-Jun-22 14:01N 30°06' W 093°19'0 0.2
2018-Jun-22 13:30N 30°06' W 093°19'0 0.2
2018-Jun-22 13:00N 30°06' W 093°19'0 0.0
2018-Jun-22 12:30N 30°06' W 093°19'0 0.0
2018-Jun-22 12:00N 30°06' W 093°19'0 0.1
2018-Jun-22 11:30N 30°06' W 093°19'0 0.1
2018-Jun-22 11:00N 30°06' W 093°19'0 0.3
2018-Jun-22 10:30N 30°06' W 093°19'0 0.1
2018-Jun-22 10:00N 30°06' W 093°19'0 0.1
2018-Jun-22 09:30N 30°06' W 093°19'0 0.1
2018-Jun-22 09:00N 30°06' W 093°19'1 1.5
2018-Jun-22 08:30N 30°06' W 093°19'1 2.6
2018-Jun-22 08:00N 30°05' W 093°20'2 3.6
2018-Jun-22 07:30N 30°04' W 093°22'2 3.3
2018-Jun-22 07:00N 30°04' W 093°24'0 0.2
2018-Jun-22 06:30N 30°04' W 093°24'2 3.8
2018-Jun-22 06:00N 30°04' W 093°26'3 5.5
2018-Jun-22 05:30N 30°04' W 093°30'3 5.5
2018-Jun-22 05:00N 30°04' W 093°33'3 5.3
2018-Jun-22 04:30N 30°04' W 093°36'2 3.9
2018-Jun-22 04:00N 30°04' W 093°38'3 5.1
2018-Jun-22 03:30N 30°04' W 093°41'2 4.9
2018-Jun-22 03:00N 30°03' W 093°44'3 5.4
2018-Jun-22 02:30N 30°01' W 093°46'3 5.5
2018-Jun-22 02:00N 29°59' W 093°48'3 6.0
2018-Jun-22 01:30N 29°58' W 093°51'3 5.7
2018-Jun-22 01:00N 29°55' W 093°53'3 5.4
2018-Jun-22 00:30N 29°53' W 093°55'3 5.4
2018-Jun-22 00:00N 29°51' W 093°57'3 5.6
2018-Jun-21 23:30N 29°49' W 093°59'3 5.4
2018-Jun-21 23:00N 29°47' W 094°01'3 5.4
2018-Jun-21 22:30N 29°45' W 094°04'3 5.1
2018-Jun-21 22:00N 29°44' W 094°06'2 4.8
2018-Jun-21 21:30N 29°42' W 094°08'2 4.5
2018-Jun-21 21:00N 29°41' W 094°10'2 4.4
2018-Jun-21 20:30N 29°41' W 094°13'2 3.7
2018-Jun-21 20:00N 29°40' W 094°15'2 4.2
2018-Jun-21 19:30N 29°39' W 094°17'2 4.3
2018-Jun-21 18:58N 29°38' W 094°19'2 4.4
2018-Jun-21 18:30N 29°37' W 094°21'2 4.2
2018-Jun-21 18:00N 29°36' W 094°23'2 3.0
2018-Jun-21 17:23N 29°35' W 094°25'2 4.0
2018-Jun-21 17:00N 29°34' W 094°27'2 4.2
2018-Jun-21 16:30N 29°33' W 094°28'3 5.1
2018-Jun-21 15:54N 29°31' W 094°31'2 6.0
2018-Jun-21 15:30N 29°30' W 094°34'4 6.0
2018-Jun-21 14:51N 29°28' W 094°38'7 5.4
2018-Jun-21 13:30N 29°24' W 094°45'3 5.5
2018-Jun-21 12:59N 29°22' W 094°47'3 4.8
2018-Jun-21 12:22N 29°25' W 094°49'3 7.1
2018-Jun-21 11:54N 29°27' W 094°51'6 7.0
2018-Jun-21 11:05N 29°32' W 094°54'2 6.9
2018-Jun-21 10:52N 29°34' W 094°55'2 6.8
2018-Jun-21 10:30N 29°36' W 094°57'3 6.7
2018-Jun-21 10:00N 29°39' W 094°58'4 6.9
2018-Jun-21 09:28N 29°42' W 095°00'6 3.2
2018-Jun-21 07:33N 29°47' W 095°04'0 0.1
2018-Jun-21 07:29N 29°47' W 095°04'2 0.1
2018-Jun-20 10:28N 29°46' W 095°06'0 0.0
2018-Jun-20 09:58N 29°46' W 095°06'2 2.3
2018-Jun-20 09:08N 29°47' W 095°04'4 0.5
2018-Jun-20 01:45N 29°44' W 095°07'3 6.5
2018-Jun-20 01:19N 29°46' W 095°05'0 0.1
2018-Jun-19 22:53N 29°46' W 095°05'4 0.1
2018-Jun-18 15:14N 29°44' W 095°02'2 5.6
2018-Jun-18 14:57N 29°42' W 095°01'3 7.0
2018-Jun-18 14:30N 29°40' W 094°59'4 6.5
2018-Jun-18 13:57N 29°37' W 094°57'4 7.7
2018-Jun-18 13:30N 29°34' W 094°55'12 7.1
2018-Jun-18 11:44N 29°23' W 094°48'1 6.2
2018-Jun-18 11:30N 29°23' W 094°47'3 6.0
2018-Jun-18 11:00N 29°25' W 094°44'9 5.2
2018-Jun-18 09:21N 29°29' W 094°36'12 5.1
2018-Jun-18 06:55N 29°36' W 094°24'3 5.5
2018-Jun-18 06:19N 29°37' W 094°20'2 6.0
2018-Jun-18 05:58N 29°38' W 094°18'3 6.0
2018-Jun-18 05:30N 29°39' W 094°15'3 5.9
2018-Jun-18 05:00N 29°41' W 094°12'3 5.7
2018-Jun-18 04:30N 29°42' W 094°09'2 4.7
2018-Jun-18 04:00N 29°43' W 094°07'3 5.4
2018-Jun-18 03:30N 29°45' W 094°05'3 5.5
2018-Jun-18 03:00N 29°46' W 094°02'3 5.5
2018-Jun-18 02:30N 29°48' W 094°00'3 5.7
2018-Jun-18 02:00N 29°50' W 093°57'3 5.4
2018-Jun-18 01:30N 29°52' W 093°56'3 6.8
2018-Jun-18 01:00N 29°55' W 093°53'2 3.6
2018-Jun-18 00:30N 29°56' W 093°52'0 0.0
2018-Jun-17 23:59N 29°56' W 093°52'0 0.0
2018-Jun-17 23:30N 29°56' W 093°52'0 0.0
2018-Jun-17 23:00N 29°56' W 093°52'0 0.0
2018-Jun-17 22:30N 29°56' W 093°52'1 2.5
2018-Jun-17 22:00N 29°57' W 093°52'3 5.4
2018-Jun-17 21:30N 29°59' W 093°49'3 5.5
2018-Jun-17 21:00N 30°00' W 093°46'2 4.1
2018-Jun-17 20:30N 30°02' W 093°44'2 4.5
2018-Jun-17 20:00N 30°03' W 093°43'3 5.1
2018-Jun-17 19:30N 30°04' W 093°40'3 5.2
2018-Jun-17 19:00N 30°04' W 093°37'3 5.6
2018-Jun-17 18:30N 30°04' W 093°34'3 5.8
2018-Jun-17 18:00N 30°04' W 093°30'3 5.7
2018-Jun-17 17:30N 30°04' W 093°27'3 5.4
2018-Jun-17 17:00N 30°04' W 093°24'3 5.3
2018-Jun-17 16:30N 30°04' W 093°21'3 6.0
2018-Jun-17 16:00N 30°06' W 093°18'1 2.4
2018-Jun-17 15:30N 30°05' W 093°18'2 3.3
2018-Jun-17 15:00N 30°04' W 093°16'0 0.5
2018-Jun-17 14:30N 30°04' W 093°16'0 0.0
2018-Jun-17 14:00N 30°04' W 093°16'0 0.1
2018-Jun-17 13:30N 30°04' W 093°16'2 3.4
2018-Jun-17 13:00N 30°02' W 093°15'1 1.1
2018-Jun-17 12:30N 30°02' W 093°15'0 0.0
2018-Jun-17 12:00N 30°02' W 093°15'0 0.0
2018-Jun-17 11:30N 30°02' W 093°15'0 0.0
2018-Jun-17 11:00N 30°02' W 093°15'0 0.0
2018-Jun-17 10:30N 30°02' W 093°15'0 0.0
2018-Jun-17 10:00N 30°02' W 093°15'0 0.0
2018-Jun-17 09:30N 30°02' W 093°15'0 0.0
2018-Jun-17 09:00N 30°02' W 093°15'0 0.0
2018-Jun-17 08:30N 30°02' W 093°15'0 0.0
2018-Jun-17 08:00N 30°02' W 093°15'0 0.2
2018-Jun-17 07:30N 30°02' W 093°15'0 0.9
2018-Jun-17 07:00N 30°02' W 093°14'2 3.9
2018-Jun-17 06:30N 29°60' W 093°13'2 4.1
2018-Jun-17 06:00N 29°58' W 093°12'0 0.6
2018-Jun-17 05:30N 29°58' W 093°11'0 0.0
2018-Jun-17 05:00N 29°58' W 093°11'0 0.0
2018-Jun-17 04:30N 29°58' W 093°11'0 0.1
2018-Jun-17 04:00N 29°58' W 093°11'0 0.0
2018-Jun-17 03:30N 29°58' W 093°11'0 0.0
2018-Jun-17 03:00N 29°58' W 093°11'0 0.0
2018-Jun-17 02:26N 29°58' W 093°11'0 0.0
2018-Jun-17 02:00N 29°58' W 093°11'0 0.5
2018-Jun-17 01:30N 29°58' W 093°11'2 4.6
2018-Jun-17 01:00N 29°56' W 093°09'3 4.9
2018-Jun-17 00:28N 29°56' W 093°06'2 5.0
2018-Jun-17 00:00N 29°56' W 093°04'36 3.5
2018-Jun-16 13:56N 29°52' W 092°23'2 4.2
2018-Jun-16 13:24N 29°51' W 092°21'2 4.6
2018-Jun-16 12:59N 29°50' W 092°19'2 4.0
2018-Jun-16 12:29N 29°49' W 092°17'2 5.1
2018-Jun-16 12:00N 29°48' W 092°15'2 4.3
2018-Jun-16 11:30N 29°47' W 092°12'1 2.7
2018-Jun-16 11:00N 29°47' W 092°11'2 4.2
2018-Jun-16 10:30N 29°47' W 092°08'2 4.6
2018-Jun-16 10:00N 29°48' W 092°06'2 4.6
2018-Jun-16 09:30N 29°49' W 092°03'2 4.3
2018-Jun-16 09:00N 29°49' W 092°01'2 4.3
2018-Jun-16 08:30N 29°50' W 091°59'2 4.1
2018-Jun-16 08:00N 29°51' W 091°57'2 4.3
2018-Jun-16 07:30N 29°51' W 091°54'4 3.4
2018-Jun-16 06:20N 29°49' W 091°50'  
Track history (hours):
 
Tides and Currents Weather Stations Pressure Air Temp Water Temp Dewpoint Dewpoint Depression Visibility Wind Speed Wind Dir Waves Ship Positions

Lady Of Guadalupe

Owner: Marquette Transportation Company Gulf-Inland, LLC, Jefferson, LA. More information available from US FCC via Universal Licensing System and Coast Guard Vessel Documentation Center.

Last reported at 2018-Jun-23 14:06 UTC. Time now 2018-Jun-23 15:33 UTC.
Position N 29°56' W 093°06'.

Length 205 m; draft 3 m.

Type: Towing. MMSI: 367515280.

Date/timePositionNaut miles runAvg speedWind from/ knotsBaromVisibWave heightAir tempDewpointWater temp
2018-Jun-23 14:06N 29°56' W 093°06'0 4.0
2018-Jun-23 13:59N 29°56' W 093°07'2 4.2
2018-Jun-23 13:30N 29°56' W 093°09'2 4.2
2018-Jun-23 13:00N 29°58' W 093°11'2 3.4
2018-Jun-23 12:30N 29°59' W 093°12'2 4.0
2018-Jun-23 12:00N 30°00' W 093°14'2 3.4
2018-Jun-23 11:30N 30°02' W 093°15'1 2.7
2018-Jun-23 11:00N 30°03' W 093°16'1 2.7
2018-Jun-23 10:30N 30°04' W 093°16'1 2.9
2018-Jun-23 10:00N 30°05' W 093°17'0 0.8
2018-Jun-23 09:30N 30°05' W 093°18'1 1.6
2018-Jun-23 09:00N 30°06' W 093°18'0 0.8
2018-Jun-23 08:30N 30°06' W 093°19'0 0.0
2018-Jun-23 08:00N 30°06' W 093°19'0 0.0
2018-Jun-23 07:30N 30°06' W 093°19'0 0.0
2018-Jun-23 07:00N 30°06' W 093°19'0 0.0
2018-Jun-23 06:30N 30°06' W 093°19'0 0.0
2018-Jun-23 06:00N 30°06' W 093°19'0 0.1
2018-Jun-23 05:30N 30°06' W 093°19'0 0.0
2018-Jun-23 05:00N 30°06' W 093°19'0 0.0
2018-Jun-23 04:30N 30°06' W 093°19'0 0.0
2018-Jun-23 04:00N 30°06' W 093°19'0 0.0
2018-Jun-23 03:30N 30°06' W 093°19'0 0.0
2018-Jun-23 03:00N 30°06' W 093°19'0 0.0
2018-Jun-23 02:30N 30°06' W 093°19'0 0.0
2018-Jun-23 02:00N 30°06' W 093°19'0 0.0
2018-Jun-23 01:30N 30°06' W 093°19'0 0.0
2018-Jun-23 00:59N 30°06' W 093°19'0 0.0
2018-Jun-23 00:30N 30°06' W 093°19'0 0.0
2018-Jun-23 00:00N 30°06' W 093°19'0 0.0
2018-Jun-22 23:30N 30°06' W 093°19'0 0.0
2018-Jun-22 23:00N 30°06' W 093°19'0 0.0
2018-Jun-22 22:30N 30°06' W 093°19'0 0.1
2018-Jun-22 22:00N 30°06' W 093°19'0 0.0
2018-Jun-22 21:30N 30°06' W 093°19'0 0.0
2018-Jun-22 21:00N 30°06' W 093°19'0 0.0
2018-Jun-22 20:30N 30°06' W 093°19'0 0.0
2018-Jun-22 20:00N 30°06' W 093°19'0 0.0
2018-Jun-22 19:30N 30°06' W 093°19'0 0.0
2018-Jun-22 19:00N 30°06' W 093°19'0 0.0
2018-Jun-22 18:30N 30°06' W 093°19'0 0.0
2018-Jun-22 18:00N 30°06' W 093°19'0 0.0
2018-Jun-22 17:30N 30°06' W 093°19'0 0.0
2018-Jun-22 17:00N 30°06' W 093°19'0 0.0
2018-Jun-22 16:30N 30°06' W 093°19'0 0.0
2018-Jun-22 16:00N 30°06' W 093°19'0 0.0
2018-Jun-22 15:30N 30°06' W 093°19'0 0.0
2018-Jun-22 15:00N 30°06' W 093°19'0 0.0
2018-Jun-22 14:30N 30°06' W 093°19'0 0.0
2018-Jun-22 14:01N 30°06' W 093°19'0 0.2
2018-Jun-22 13:30N 30°06' W 093°19'0 0.2
2018-Jun-22 13:00N 30°06' W 093°19'0 0.0
2018-Jun-22 12:30N 30°06' W 093°19'0 0.0
2018-Jun-22 12:00N 30°06' W 093°19'0 0.1
2018-Jun-22 11:30N 30°06' W 093°19'0 0.1
2018-Jun-22 11:00N 30°06' W 093°19'0 0.3
2018-Jun-22 10:30N 30°06' W 093°19'0 0.1
2018-Jun-22 10:00N 30°06' W 093°19'0 0.1
2018-Jun-22 09:30N 30°06' W 093°19'0 0.1
2018-Jun-22 09:00N 30°06' W 093°19'1 1.5
2018-Jun-22 08:30N 30°06' W 093°19'1 2.6
2018-Jun-22 08:00N 30°05' W 093°20'2 3.6
2018-Jun-22 07:30N 30°04' W 093°22'2 3.3
2018-Jun-22 07:00N 30°04' W 093°24'0 0.2
2018-Jun-22 06:30N 30°04' W 093°24'2 3.8
2018-Jun-22 06:00N 30°04' W 093°26'3 5.5
2018-Jun-22 05:30N 30°04' W 093°30'3 5.5
2018-Jun-22 05:00N 30°04' W 093°33'3 5.3
2018-Jun-22 04:30N 30°04' W 093°36'2 3.9
2018-Jun-22 04:00N 30°04' W 093°38'3 5.1
2018-Jun-22 03:30N 30°04' W 093°41'2 4.9
2018-Jun-22 03:00N 30°03' W 093°44'3 5.4
2018-Jun-22 02:30N 30°01' W 093°46'3 5.5
2018-Jun-22 02:00N 29°59' W 093°48'3 6.0
2018-Jun-22 01:30N 29°58' W 093°51'3 5.7
2018-Jun-22 01:00N 29°55' W 093°53'3 5.4
2018-Jun-22 00:30N 29°53' W 093°55'3 5.4
2018-Jun-22 00:00N 29°51' W 093°57'3 5.6
2018-Jun-21 23:30N 29°49' W 093°59'3 5.4
2018-Jun-21 23:00N 29°47' W 094°01'3 5.4
2018-Jun-21 22:30N 29°45' W 094°04'3 5.1
2018-Jun-21 22:00N 29°44' W 094°06'2 4.8
2018-Jun-21 21:30N 29°42' W 094°08'2 4.5
2018-Jun-21 21:00N 29°41' W 094°10'2 4.4
2018-Jun-21 20:30N 29°41' W 094°13'2 3.7
2018-Jun-21 20:00N 29°40' W 094°15'2 4.2
2018-Jun-21 19:30N 29°39' W 094°17'2 4.3
2018-Jun-21 18:58N 29°38' W 094°19'2 4.4
2018-Jun-21 18:30N 29°37' W 094°21'2 4.2
2018-Jun-21 18:00N 29°36' W 094°23'2 3.0
2018-Jun-21 17:23N 29°35' W 094°25'2 4.0
2018-Jun-21 17:00N 29°34' W 094°27'2 4.2
2018-Jun-21 16:30N 29°33' W 094°28'3 5.1
2018-Jun-21 15:54N 29°31' W 094°31'2 6.0
2018-Jun-21 15:30N 29°30' W 094°34'4 6.0
2018-Jun-21 14:51N 29°28' W 094°38'7 5.4
2018-Jun-21 13:30N 29°24' W 094°45'3 5.5
2018-Jun-21 12:59N 29°22' W 094°47'3 4.8
2018-Jun-21 12:22N 29°25' W 094°49'3 7.1
2018-Jun-21 11:54N 29°27' W 094°51'6 7.0
2018-Jun-21 11:05N 29°32' W 094°54'2 6.9
2018-Jun-21 10:52N 29°34' W 094°55'2 6.8
2018-Jun-21 10:30N 29°36' W 094°57'3 6.7
2018-Jun-21 10:00N 29°39' W 094°58'4 6.9
2018-Jun-21 09:28N 29°42' W 095°00'6 3.2
2018-Jun-21 07:33N 29°47' W 095°04'0 0.1
2018-Jun-21 07:29N 29°47' W 095°04'2 0.1
2018-Jun-20 10:28N 29°46' W 095°06'0 0.0
2018-Jun-20 09:58N 29°46' W 095°06'2 2.3
2018-Jun-20 09:08N 29°47' W 095°04'4 0.5
2018-Jun-20 01:45N 29°44' W 095°07'3 6.5
2018-Jun-20 01:19N 29°46' W 095°05'0 0.1
2018-Jun-19 22:53N 29°46' W 095°05'4 0.1
2018-Jun-18 15:14N 29°44' W 095°02'2 5.6
2018-Jun-18 14:57N 29°42' W 095°01'3 7.0
2018-Jun-18 14:30N 29°40' W 094°59'4 6.5
2018-Jun-18 13:57N 29°37' W 094°57'4 7.7
2018-Jun-18 13:30N 29°34' W 094°55'12 7.1
2018-Jun-18 11:44N 29°23' W 094°48'1 6.2
2018-Jun-18 11:30N 29°23' W 094°47'3 6.0
2018-Jun-18 11:00N 29°25' W 094°44'9 5.2
2018-Jun-18 09:21N 29°29' W 094°36'12 5.1
2018-Jun-18 06:55N 29°36' W 094°24'3 5.5
2018-Jun-18 06:19N 29°37' W 094°20'2 6.0
2018-Jun-18 05:58N 29°38' W 094°18'3 6.0
2018-Jun-18 05:30N 29°39' W 094°15'3 5.9
2018-Jun-18 05:00N 29°41' W 094°12'3 5.7
2018-Jun-18 04:30N 29°42' W 094°09'2 4.7
2018-Jun-18 04:00N 29°43' W 094°07'3 5.4
2018-Jun-18 03:30N 29°45' W 094°05'3 5.5
2018-Jun-18 03:00N 29°46' W 094°02'3 5.5
2018-Jun-18 02:30N 29°48' W 094°00'3 5.7
2018-Jun-18 02:00N 29°50' W 093°57'3 5.4
2018-Jun-18 01:30N 29°52' W 093°56'3 6.8
2018-Jun-18 01:00N 29°55' W 093°53'2 3.6
2018-Jun-18 00:30N 29°56' W 093°52'0 0.0
2018-Jun-17 23:59N 29°56' W 093°52'0 0.0
2018-Jun-17 23:30N 29°56' W 093°52'0 0.0
2018-Jun-17 23:00N 29°56' W 093°52'0 0.0
2018-Jun-17 22:30N 29°56' W 093°52'1 2.5
2018-Jun-17 22:00N 29°57' W 093°52'3 5.4
2018-Jun-17 21:30N 29°59' W 093°49'3 5.5
2018-Jun-17 21:00N 30°00' W 093°46'2 4.1
2018-Jun-17 20:30N 30°02' W 093°44'2 4.5
2018-Jun-17 20:00N 30°03' W 093°43'3 5.1
2018-Jun-17 19:30N 30°04' W 093°40'3 5.2
2018-Jun-17 19:00N 30°04' W 093°37'3 5.6
2018-Jun-17 18:30N 30°04' W 093°34'3 5.8
2018-Jun-17 18:00N 30°04' W 093°30'3 5.7
2018-Jun-17 17:30N 30°04' W 093°27'3 5.4
2018-Jun-17 17:00N 30°04' W 093°24'3 5.3
2018-Jun-17 16:30N 30°04' W 093°21'3 6.0
2018-Jun-17 16:00N 30°06' W 093°18'1 2.4
2018-Jun-17 15:30N 30°05' W 093°18'2 3.3
2018-Jun-17 15:00N 30°04' W 093°16'0 0.5
2018-Jun-17 14:30N 30°04' W 093°16'0 0.0
2018-Jun-17 14:00N 30°04' W 093°16'0 0.1
2018-Jun-17 13:30N 30°04' W 093°16'2 3.4
2018-Jun-17 13:00N 30°02' W 093°15'1 1.1
2018-Jun-17 12:30N 30°02' W 093°15'0 0.0
2018-Jun-17 12:00N 30°02' W 093°15'0 0.0
2018-Jun-17 11:30N 30°02' W 093°15'0 0.0
2018-Jun-17 11:00N 30°02' W 093°15'0 0.0
2018-Jun-17 10:30N 30°02' W 093°15'0 0.0
2018-Jun-17 10:00N 30°02' W 093°15'0 0.0
2018-Jun-17 09:30N 30°02' W 093°15'0 0.0
2018-Jun-17 09:00N 30°02' W 093°15'0 0.0
2018-Jun-17 08:30N 30°02' W 093°15'0 0.0
2018-Jun-17 08:00N 30°02' W 093°15'0 0.2
2018-Jun-17 07:30N 30°02' W 093°15'0 0.9
2018-Jun-17 07:00N 30°02' W 093°14'2 3.9
2018-Jun-17 06:30N 29°60' W 093°13'2 4.1
2018-Jun-17 06:00N 29°58' W 093°12'0 0.6
2018-Jun-17 05:30N 29°58' W 093°11'0 0.0
2018-Jun-17 05:00N 29°58' W 093°11'0 0.0
2018-Jun-17 04:30N 29°58' W 093°11'0 0.1
2018-Jun-17 04:00N 29°58' W 093°11'0 0.0
2018-Jun-17 03:30N 29°58' W 093°11'0 0.0
2018-Jun-17 03:00N 29°58' W 093°11'0 0.0
2018-Jun-17 02:26N 29°58' W 093°11'0 0.0
2018-Jun-17 02:00N 29°58' W 093°11'0 0.5
2018-Jun-17 01:30N 29°58' W 093°11'2 4.6
2018-Jun-17 01:00N 29°56' W 093°09'3 4.9
2018-Jun-17 00:28N 29°56' W 093°06'2 5.0
2018-Jun-17 00:00N 29°56' W 093°04'36 3.5
2018-Jun-16 13:56N 29°52' W 092°23'2 4.2
2018-Jun-16 13:24N 29°51' W 092°21'2 4.6
2018-Jun-16 12:59N 29°50' W 092°19'2 4.0
2018-Jun-16 12:29N 29°49' W 092°17'2 5.1
2018-Jun-16 12:00N 29°48' W 092°15'2 4.3
2018-Jun-16 11:30N 29°47' W 092°12'1 2.7
2018-Jun-16 11:00N 29°47' W 092°11'2 4.2
2018-Jun-16 10:30N 29°47' W 092°08'2 4.6
2018-Jun-16 10:00N 29°48' W 092°06'2 4.6
2018-Jun-16 09:30N 29°49' W 092°03'2 4.3
2018-Jun-16 09:00N 29°49' W 092°01'2 4.3
2018-Jun-16 08:30N 29°50' W 091°59'2 4.1
2018-Jun-16 08:00N 29°51' W 091°57'2 4.3
2018-Jun-16 07:30N 29°51' W 091°54'4 3.4
2018-Jun-16 06:20N 29°49' W 091°50'  

Dump ship's entire track history